Time;durP1;ratioP1;P1;durP2;ratioP2;P2;SDS_P1;SDS_P2;PMS_P1;PMS_P2;Temp;Humidity;BMP_temperature;BMP_pressure;BME280_temperature;BME280_humidity;BME280_pressure;Samples;Min_cycle;Max_cycle;Signal;HPM_P1;HPM_P2
2023/05/28 00:01:41;;;;;;;35.90;17.77;;;;;;;13.49;65.45;101928.38;5032080;28;20519;-78
2023/05/28 00:04:07;;;;;;;33.40;17.13;;;;;;;13.48;65.53;101931.91;5031907;28;20018;-77
2023/05/28 00:06:32;;;;;;;36.05;17.25;;;;;;;13.46;65.94;101931.06;5031012;28;20151;-77
2023/05/28 00:08:58;;;;;;;30.92;16.45;;;;;;;13.43;64.98;101936.34;5031887;28;20457;-78
2023/05/28 00:11:23;;;;;;;53.88;20.50;;;;;;;13.40;65.13;101932.91;5031732;28;20017;-77
2023/05/28 00:13:48;;;;;;;45.95;19.80;;;;;;;13.40;64.94;101928.56;5031964;28;20520;-77
2023/05/28 00:16:14;;;;;;;36.97;18.75;;;;;;;13.38;65.39;101924.25;5031536;28;20440;-77
2023/05/28 00:18:39;;;;;;;38.13;18.10;;;;;;;13.35;64.39;101922.53;5030807;28;20053;-77
2023/05/28 00:21:05;;;;;;;39.03;19.00;;;;;;;13.30;64.24;101919.16;5031804;28;20021;-77
2023/05/28 00:23:30;;;;;;;40.35;19.15;;;;;;;13.23;64.32;101915.81;5030416;28;20056;-77
2023/05/28 00:25:55;;;;;;;39.40;20.17;;;;;;;13.18;65.24;101918.50;5031651;28;20140;-77
2023/05/28 00:28:21;;;;;;;40.58;19.40;;;;;;;13.14;65.48;101922.09;5031872;28;20032;-77
2023/05/28 00:30:46;;;;;;;40.80;18.92;;;;;;;13.12;65.71;101922.97;5031656;28;20022;-77
2023/05/28 00:33:11;;;;;;;46.35;19.48;;;;;;;13.10;65.55;101924.75;5031649;28;20358;-77
2023/05/28 00:35:36;;;;;;;45.83;20.85;;;;;;;13.08;65.70;101916.97;5031557;28;20028;-77
2023/05/28 00:38:02;;;;;;;50.03;20.77;;;;;;;13.06;65.71;101926.56;5031701;28;20049;-77
2023/05/28 00:40:27;;;;;;;47.70;21.77;;;;;;;13.03;66.44;101926.63;5031655;28;20078;-77
2023/05/28 00:42:53;;;;;;;46.75;20.60;;;;;;;13.00;66.41;101929.28;5031290;28;20017;-78
2023/05/28 00:45:18;;;;;;;45.35;20.02;;;;;;;12.98;66.61;101925.88;5031289;28;20029;-77
2023/05/28 00:47:44;;;;;;;44.00;18.50;;;;;;;12.93;66.39;101923.31;5030112;28;20038;-78
2023/05/28 00:50:12;;;;;;;42.08;18.63;;;;;;;12.87;66.99;101932.13;5030228;28;20037;-77
2023/05/28 00:52:38;;;;;;;39.25;17.02;;;;;;;12.82;67.36;101933.97;5029178;28;20092;-77
2023/05/28 00:55:14;;;;;;;41.03;17.98;;;;;;;12.75;66.65;101929.75;5029659;28;20513;-77
2023/05/28 00:57:40;;;;;;;38.03;17.48;;;;;;;12.66;67.40;101932.50;5031154;28;20023;-77
2023/05/28 01:00:06;;;;;;;36.38;15.70;;;;;;;12.57;67.46;101934.41;5030782;28;20112;-77
2023/05/28 01:02:32;;;;;;;28.25;13.70;;;;;;;12.51;67.73;101931.03;5030846;28;20050;-77
2023/05/28 01:04:58;;;;;;;28.00;13.40;;;;;;;12.49;67.81;101933.63;5030817;28;20499;-77
2023/05/28 01:07:23;;;;;;;24.10;11.68;;;;;;;12.45;68.20;101926.78;5031024;28;20034;-77
2023/05/28 01:09:49;;;;;;;20.33;9.88;;;;;;;12.42;68.12;101926.81;5031158;28;20029;-77
2023/05/28 01:12:15;;;;;;;15.07;8.60;;;;;;;12.41;68.19;101927.69;5030628;28;20032;-77
2023/05/28 01:14:41;;;;;;;16.83;8.30;;;;;;;12.37;68.36;101912.97;5031001;28;20040;-77
2023/05/28 01:17:07;;;;;;;15.95;7.60;;;;;;;12.36;68.29;101924.28;5031615;28;20025;-77
2023/05/28 01:19:33;;;;;;;14.88;6.85;;;;;;;12.33;68.16;101916.50;5035117;28;20021;-77
2023/05/28 01:22:03;;;;;;;13.43;6.68;;;;;;;12.27;68.24;101918.34;5034779;28;20029;-77
2023/05/28 01:24:31;;;;;;;14.77;7.05;;;;;;;12.23;68.23;101919.28;5033267;28;20029;-77
2023/05/28 01:26:57;;;;;;;11.70;6.50;;;;;;;12.20;68.39;101924.53;5034697;28;20053;-77
2023/05/28 01:29:22;;;;;;;12.50;6.22;;;;;;;12.18;68.58;101928.06;5034896;28;20088;-77
2023/05/28 01:31:47;;;;;;;11.75;6.10;;;;;;;12.17;68.76;101921.97;5034451;28;20557;-77
2023/05/28 01:34:13;;;;;;;9.18;5.57;;;;;;;12.15;68.74;101923.72;5034679;28;20041;-77
2023/05/28 01:36:51;;;;;;;11.70;6.05;;;;;;;12.13;68.32;101925.50;5033979;28;20068;-77
2023/05/28 01:39:19;;;;;;;8.80;5.38;;;;;;;12.10;68.81;101915.13;5033755;28;20037;-77
2023/05/28 01:41:47;;;;;;;10.48;5.78;;;;;;;12.04;69.01;101923.03;5034426;28;20049;-77
2023/05/28 01:44:15;;;;;;;10.00;5.45;;;;;;;12.01;69.16;101925.69;5034419;28;20033;-77
2023/05/28 01:46:42;;;;;;;13.80;5.30;;;;;;;11.99;69.18;101928.31;5034171;28;20083;-77
2023/05/28 01:49:10;;;;;;;9.10;5.38;;;;;;;11.97;68.94;101933.50;5034225;28;20530;-77
2023/05/28 01:51:35;;;;;;;11.85;5.40;;;;;;;11.94;68.94;101935.31;5034169;28;20033;-77
2023/05/28 01:54:01;;;;;;;11.75;5.45;;;;;;;11.91;69.01;101936.22;5034060;28;20136;-77
2023/05/28 01:56:26;;;;;;;9.45;5.00;;;;;;;11.88;69.64;101925.84;5034117;28;20061;-78
2023/05/28 01:58:51;;;;;;;9.25;4.93;;;;;;;11.87;69.34;101925.88;5034183;28;20029;-77
2023/05/28 02:01:29;;;;;;;8.30;4.75;;;;;;;11.86;68.77;101914.56;5033825;28;20112;-77
2023/05/28 02:03:57;;;;;;;9.30;4.90;;;;;;;11.82;70.03;101916.34;5033426;28;20029;-77
2023/05/28 02:06:24;;;;;;;9.50;5.35;;;;;;;11.84;70.63;101913.72;5032766;28;20072;-77
2023/05/28 02:08:50;;;;;;;9.20;5.10;;;;;;;11.87;70.09;101915.44;5033108;28;20112;-78
2023/05/28 02:11:16;;;;;;;8.82;4.63;;;;;;;11.88;70.55;101912.78;5032477;28;20041;-77
2023/05/28 02:13:41;;;;;;;9.80;5.25;;;;;;;11.88;70.26;101904.97;5033474;28;20032;-77
2023/05/28 02:16:07;;;;;;;9.15;5.07;;;;;;;11.86;70.83;101906.72;5033326;28;20053;-77
2023/05/28 02:18:32;;;;;;;8.77;4.90;;;;;;;11.85;70.75;101905.00;5033104;28;20495;-77
2023/05/28 02:20:58;;;;;;;9.95;4.47;;;;;;;11.88;70.85;101902.38;5033168;28;20030;-77
2023/05/28 02:23:23;;;;;;;10.18;4.47;;;;;;;11.89;70.66;101895.38;5033291;28;20201;-77
2023/05/28 02:25:49;;;;;;;8.18;4.43;;;;;;;11.91;70.82;101897.13;5032940;28;20028;-77
2023/05/28 02:28:14;;;;;;;9.63;4.95;;;;;;;11.90;70.28;101898.00;5031569;28;20021;-77
2023/05/28 02:30:39;;;;;;;10.07;4.85;;;;;;;11.85;70.41;101894.59;5032402;28;20380;-77
2023/05/28 02:33:05;;;;;;;7.78;4.22;;;;;;;11.80;70.02;101891.16;5033417;28;20135;-77
2023/05/28 02:35:31;;;;;;;9.00;4.75;;;;;;;11.77;70.96;101892.09;5033289;28;20395;-77
2023/05/28 02:37:56;;;;;;;8.68;4.80;;;;;;;11.74;70.65;101886.06;5033497;28;20074;-77
2023/05/28 02:40:21;;;;;;;10.15;4.90;;;;;;;11.70;70.32;101890.44;5033236;28;20465;-77
2023/05/28 02:42:47;;;;;;;8.38;4.40;;;;;;;11.66;69.63;101892.22;5032925;28;20542;-77
2023/05/28 02:45:12;;;;;;;10.00;4.65;;;;;;;11.66;70.35;101901.81;5033319;28;20033;-77
2023/05/28 02:47:37;;;;;;;8.50;4.30;;;;;;;11.63;70.19;101905.28;5032077;28;20036;-77
2023/05/28 02:50:03;;;;;;;8.20;4.15;;;;;;;11.57;70.46;101902.78;5033019;28;20036;-77
2023/05/28 02:52:28;;;;;;;9.05;4.30;;;;;;;11.55;70.61;101904.53;5033048;28;20041;-77
2023/05/28 02:54:54;;;;;;;8.20;4.20;;;;;;;11.51;70.76;101905.44;5033121;28;20421;-77
2023/05/28 02:57:19;;;;;;;10.48;4.78;;;;;;;11.50;71.28;101903.72;5033177;28;20030;-77
2023/05/28 02:59:44;;;;;;;8.38;4.57;;;;;;;11.47;71.40;101907.25;5032911;28;20017;-77
2023/05/28 03:02:10;;;;;;;9.05;4.93;;;;;;;11.47;71.72;101903.75;5031260;28;20116;-77
2023/05/28 03:04:35;;;;;;;7.45;4.50;;;;;;;11.43;71.41;101908.16;5030447;28;20408;-77
2023/05/28 03:07:01;;;;;;;8.68;4.35;;;;;;;11.39;71.23;101907.34;5032904;28;20101;-77
2023/05/28 03:09:27;;;;;;;9.40;4.75;;;;;;;11.33;71.13;101906.56;5032856;28;20021;-77
2023/05/28 03:11:52;;;;;;;8.73;4.70;;;;;;;11.28;71.19;101909.19;5032408;28;20176;-77
2023/05/28 03:14:17;;;;;;;8.85;5.00;;;;;;;11.27;71.40;101901.41;5032759;28;20025;-77
2023/05/28 03:16:43;;;;;;;9.60;4.78;;;;;;;11.26;71.36;101916.19;5032811;28;20052;-78
2023/05/28 03:19:08;;;;;;;7.55;4.47;;;;;;;11.25;72.00;101914.47;5032215;28;20036;-77
2023/05/28 03:21:33;;;;;;;9.18;4.63;;;;;;;11.24;71.71;101912.72;5032573;28;20022;-77
2023/05/28 03:23:58;;;;;;;8.30;4.15;;;;;;;11.23;71.76;101911.00;5031331;28;20109;-77
2023/05/28 03:26:24;;;;;;;8.20;4.70;;;;;;;11.20;72.16;101913.63;5032339;28;20038;-77
2023/05/28 03:28:49;;;;;;;8.10;4.57;;;;;;;11.19;72.58;101906.69;5032471;28;20033;-77
2023/05/28 03:31:14;;;;;;;12.23;4.68;;;;;;;11.19;72.63;101909.31;5032414;28;20033;-77
2023/05/28 03:33:40;;;;;;;8.90;4.60;;;;;;;11.17;73.10;101911.06;5032352;28;20102;-77
2023/05/28 03:36:06;;;;;;;9.93;4.82;;;;;;;11.16;72.91;101906.72;5032112;28;20436;-77
2023/05/28 03:38:32;;;;;;;8.85;4.75;;;;;;;11.16;73.33;101898.91;5032377;28;20029;-77
2023/05/28 03:40:57;;;;;;;7.68;4.30;;;;;;;11.17;72.76;101906.72;5030872;28;20037;-77
2023/05/28 03:43:22;;;;;;;9.73;4.57;;;;;;;11.20;72.85;101914.50;5032113;28;20517;-77
2023/05/28 03:45:48;;;;;;;8.30;4.57;;;;;;;11.22;72.83;101906.69;5032070;28;20112;-77
2023/05/28 03:48:13;;;;;;;10.00;4.47;;;;;;;11.25;72.93;101909.25;5032205;28;20045;-77
2023/05/28 03:50:38;;;;;;;8.23;4.25;;;;;;;11.24;73.06;101915.34;5032151;28;20037;-77
2023/05/28 03:53:04;;;;;;;9.45;4.28;;;;;;;11.24;73.02;101916.19;5030574;28;20053;-77
2023/05/28 03:55:29;;;;;;;10.20;4.65;;;;;;;11.24;73.11;101920.53;5030648;28;20029;-77
2023/05/28 03:57:54;;;;;;;8.90;4.60;;;;;;;11.23;73.50;101911.00;5032049;28;20032;-77
2023/05/28 04:00:20;;;;;;;8.90;4.03;;;;;;;11.22;73.42;101914.50;5031945;28;20480;-77
2023/05/28 04:02:46;;;;;;;8.35;4.47;;;;;;;11.22;73.39;101914.50;5032191;28;20056;-77
2023/05/28 04:05:11;;;;;;;8.98;4.72;;;;;;;11.23;73.19;101921.44;5031743;28;20503;-77
2023/05/28 04:07:36;;;;;;;8.00;4.47;;;;;;;11.20;73.12;101921.47;5031880;28;20033;-77
2023/05/28 04:10:02;;;;;;;12.18;4.93;;;;;;;11.18;74.17;101918.88;5031945;28;20022;-77
2023/05/28 04:12:27;;;;;;;9.45;4.47;;;;;;;11.19;73.68;101919.72;5031840;28;20439;-77
2023/05/28 04:14:52;;;;;;;7.88;4.32;;;;;;;11.23;73.98;101922.28;5031660;28;20439;-77
2023/05/28 04:17:18;;;;;;;10.25;4.70;;;;;;;11.25;73.73;101922.28;5031872;28;20033;-77
2023/05/28 04:19:44;;;;;;;12.25;4.70;;;;;;;11.24;73.73;101921.41;5031823;28;20022;-77
2023/05/28 04:22:09;;;;;;;9.25;5.22;;;;;;;11.20;74.06;101932.72;5031574;28;20037;-77
2023/05/28 04:24:34;;;;;;;11.15;4.90;;;;;;;11.19;74.05;101935.34;5031650;28;20079;-77
2023/05/28 04:27:00;;;;;;;10.95;4.43;;;;;;;11.16;74.19;101935.38;5031682;28;20033;-77
2023/05/28 04:29:29;;;;;;;10.60;4.18;;;;;;;11.16;74.37;101941.47;5031463;28;20032;-77
2023/05/28 04:31:55;;;;;;;10.32;4.55;;;;;;;11.18;74.73;101937.13;5031548;28;20044;-77
2023/05/28 04:34:20;;;;;;;9.70;4.50;;;;;;;11.22;74.91;101937.94;5031504;28;20030;-77
2023/05/28 04:36:48;;;;;;;8.85;4.60;;;;;;;11.27;75.29;101943.09;5031675;28;20057;-77
2023/05/28 04:39:13;;;;;;;7.72;4.28;;;;;;;11.30;75.73;101946.50;5031710;28;20108;-77
2023/05/28 04:41:40;;;;;;;10.30;4.47;;;;;;;11.35;75.98;101939.50;5031615;28;20093;-77
2023/05/28 04:44:05;;;;;;;10.23;4.70;;;;;;;11.43;76.02;101943.78;5031532;28;20060;-77
2023/05/28 04:46:30;;;;;;;9.25;5.00;;;;;;;11.47;76.73;101937.63;5031338;28;20029;-77
2023/05/28 04:48:55;;;;;;;11.75;4.78;;;;;;;11.55;76.61;101946.25;5031565;28;20041;-77
2023/05/28 04:51:21;;;;;;;11.32;4.57;;;;;;;11.62;76.83;101934.84;5031435;28;20022;-77
2023/05/28 04:53:50;;;;;;;10.75;4.82;;;;;;;11.67;77.40;101940.88;5034227;28;20050;-77
2023/05/28 04:56:16;;;;;;;7.93;4.80;;;;;;;11.74;77.64;101939.03;5035406;28;20396;-77
2023/05/28 04:58:41;;;;;;;11.32;4.70;;;;;;;11.80;77.07;101936.38;5035586;28;20472;-77
2023/05/28 05:01:08;;;;;;;9.50;4.93;;;;;;;11.85;77.54;101933.69;5035106;28;20117;-77
2023/05/28 05:03:34;;;;;;;11.25;5.03;;;;;;;11.92;77.57;101932.75;5035274;28;20067;-77
2023/05/28 05:05:59;;;;;;;10.20;4.90;;;;;;;11.97;77.83;101941.34;5035535;28;20049;-77
2023/05/28 05:08:25;;;;;;;12.05;4.90;;;;;;;12.03;78.01;101942.19;5035196;28;20029;-77
2023/05/28 05:10:51;;;;;;;12.40;5.07;;;;;;;12.09;78.02;101944.72;5034460;28;20029;-77
2023/05/28 05:13:16;;;;;;;10.75;4.85;;;;;;;12.14;78.16;101937.66;5034440;28;20030;-77
2023/05/28 05:15:41;;;;;;;10.15;4.75;;;;;;;12.24;78.25;101939.25;5034936;28;20128;-77
2023/05/28 05:18:07;;;;;;;13.35;5.15;;;;;;;12.32;77.88;101943.47;5034941;28;20021;-77
2023/05/28 05:20:32;;;;;;;10.85;5.03;;;;;;;12.40;78.20;101945.09;5034712;28;20032;-77
2023/05/28 05:22:57;;;;;;;11.00;4.75;;;;;;;12.47;77.45;101945.84;5034921;28;20091;-77
2023/05/28 05:25:22;;;;;;;10.15;4.97;;;;;;;12.56;77.66;101940.50;5034921;28;20033;-77
2023/05/28 05:27:51;;;;;;;9.45;5.20;;;;;;;12.65;77.72;101949.06;5034531;28;20461;-77
2023/05/28 05:30:16;;;;;;;11.20;4.70;;;;;;;12.72;77.30;101950.69;5034587;28;21594;-77
2023/05/28 05:32:42;;;;;;;14.73;5.53;;;;;;;12.80;76.84;101948.81;5034845;28;20025;-77
2023/05/28 05:35:07;;;;;;;10.55;5.07;;;;;;;12.88;76.46;101946.91;5034716;28;20380;-77
2023/05/28 05:37:33;;;;;;;10.55;5.20;;;;;;;12.96;76.50;101954.63;5034703;28;20052;-77
2023/05/28 05:39:58;;;;;;;12.13;5.03;;;;;;;13.05;76.12;101956.19;5034624;28;20465;-77
2023/05/28 05:42:23;;;;;;;9.68;4.95;;;;;;;13.15;75.56;101955.13;5034218;28;20126;-77
2023/05/28 05:44:48;;;;;;;10.15;5.13;;;;;;;13.24;75.36;101963.72;5034551;28;20025;-77
2023/05/28 05:47:14;;;;;;;12.10;5.45;;;;;;;13.34;75.42;101965.25;5034512;28;20057;-77
2023/05/28 05:49:39;;;;;;;12.32;5.25;;;;;;;13.43;74.94;101972.06;5034513;28;20025;-77
2023/05/28 05:52:05;;;;;;;10.25;5.50;;;;;;;13.53;75.15;101964.91;5034067;28;20326;-77
2023/05/28 05:54:30;;;;;;;10.75;5.40;;;;;;;13.62;75.03;101964.75;5034279;28;20362;-77
2023/05/28 05:56:56;;;;;;;10.77;5.93;;;;;;;13.72;76.09;101974.09;5034315;28;20029;-77
2023/05/28 05:59:21;;;;;;;11.45;5.70;;;;;;;13.81;74.52;101975.66;5034207;28;20056;-77
2023/05/28 06:01:46;;;;;;;9.75;5.00;;;;;;;13.92;73.85;101975.44;5033923;28;20029;-77
2023/05/28 06:04:11;;;;;;;11.25;5.20;;;;;;;14.00;72.83;101970.03;5032962;28;20410;-77
2023/05/28 06:06:38;;;;;;;10.85;5.43;;;;;;;14.08;73.13;101968.13;5034016;28;20049;-77
2023/05/28 06:09:04;;;;;;;11.77;5.63;;;;;;;14.17;72.26;101964.44;5033879;28;20036;-77
2023/05/28 06:11:30;;;;;;;13.23;5.30;;;;;;;14.29;72.11;101965.91;5033757;28;20025;-77
2023/05/28 06:13:55;;;;;;;11.30;5.38;;;;;;;14.39;72.90;101967.41;5033503;28;20389;-77
2023/05/28 06:16:21;;;;;;;12.75;5.55;;;;;;;14.47;71.07;101959.38;5033758;28;20110;-77
2023/05/28 06:18:47;;;;;;;10.15;5.28;;;;;;;14.57;71.10;101972.22;5034004;28;20041;-77
2023/05/28 06:21:12;;;;;;;10.73;5.80;;;;;;;14.65;70.65;101969.41;5033845;28;20028;-77
2023/05/28 06:23:37;;;;;;;9.57;5.22;;;;;;;14.77;70.93;101973.53;5033823;28;20025;-77
2023/05/28 06:26:03;;;;;;;11.13;5.80;;;;;;;14.89;70.91;101967.09;5033167;28;20025;-77
2023/05/28 06:28:28;;;;;;;11.90;5.53;;;;;;;15.00;69.53;101957.19;5033731;28;20476;-77
2023/05/28 06:30:54;;;;;;;9.55;5.22;;;;;;;15.09;68.54;101958.72;5033787;28;20075;-77
2023/05/28 06:33:19;;;;;;;11.32;5.28;;;;;;;15.17;68.92;101958.50;5033315;28;20034;-77
2023/05/28 06:35:45;;;;;;;10.75;5.35;;;;;;;15.27;69.63;101957.34;5033509;28;20082;-78
2023/05/28 06:38:10;;;;;;;12.43;5.40;;;;;;;15.41;69.41;101956.09;5033515;28;20053;-77
2023/05/28 06:40:35;;;;;;;11.10;5.35;;;;;;;15.53;67.70;101958.38;5033220;28;20503;-77
2023/05/28 06:43:01;;;;;;;11.52;5.15;;;;;;;15.67;67.13;101957.13;5032852;28;20048;-77
2023/05/28 06:45:26;;;;;;;8.35;5.13;;;;;;;15.77;66.76;101955.94;5033321;28;20385;-77
2023/05/28 06:47:52;;;;;;;9.13;5.00;;;;;;;15.90;68.31;101961.72;5033421;28;20033;-77
2023/05/28 06:50:17;;;;;;;8.82;4.60;;;;;;;16.01;66.38;101953.50;5033347;28;20033;-77
2023/05/28 06:52:42;;;;;;;10.48;4.88;;;;;;;16.13;64.19;101961.00;5032720;28;20037;-77
2023/05/28 06:55:08;;;;;;;10.25;5.25;;;;;;;16.27;65.16;101963.19;5033018;28;20021;-77
2023/05/28 06:57:36;;;;;;;11.35;4.97;;;;;;;16.38;64.41;101963.72;5033137;28;20029;-77
2023/05/28 07:00:09;;;;;;;8.80;4.68;;;;;;;16.49;62.72;101958.09;5031669;28;20151;-77
2023/05/28 07:02:34;;;;;;;11.88;4.57;;;;;;;16.62;62.06;101961.19;5031431;28;20024;-78
2023/05/28 07:04:59;;;;;;;12.20;4.90;;;;;;;16.72;62.47;101953.88;5032923;28;20021;-78
2023/05/28 07:07:25;;;;;;;10.80;4.95;;;;;;;16.80;62.14;101948.34;5033049;28;20037;-77
2023/05/28 07:09:50;;;;;;;8.98;4.50;;;;;;;16.83;61.20;101959.59;5032559;28;20108;-77
2023/05/28 07:12:15;;;;;;;10.23;4.97;;;;;;;16.84;61.46;101956.06;5032699;28;20033;-77
2023/05/28 07:14:41;;;;;;;12.43;5.78;;;;;;;16.85;60.66;101962.16;5031487;28;20049;-77
2023/05/28 07:17:06;;;;;;;10.75;5.60;;;;;;;16.86;60.80;101960.41;5032699;28;20033;-77
2023/05/28 07:19:31;;;;;;;11.98;5.38;;;;;;;16.87;61.31;101964.75;5032501;28;20040;-77
2023/05/28 07:21:57;;;;;;;10.70;5.80;;;;;;;16.91;61.86;101961.13;5032213;28;20028;-77
2023/05/28 07:24:22;;;;;;;10.60;4.90;;;;;;;16.93;61.44;101969.78;5032514;28;20076;-77
2023/05/28 07:26:47;;;;;;;10.38;4.85;;;;;;;16.97;60.79;101971.44;5032396;28;20400;-78
2023/05/28 07:29:14;;;;;;;10.15;4.60;;;;;;;17.05;60.02;101973.81;5032394;28;20040;-78
2023/05/28 07:31:39;;;;;;;9.88;4.40;;;;;;;17.13;59.96;101977.03;5032433;28;20032;-77
2023/05/28 07:34:05;;;;;;;10.88;4.90;;;;;;;17.26;62.79;101977.44;5032596;28;20029;-77
2023/05/28 07:36:31;;;;;;;7.20;4.10;;;;;;;17.37;59.64;101975.28;5032325;28;20021;-77
2023/05/28 07:38:56;;;;;;;10.05;4.22;;;;;;;17.47;59.26;101970.56;5032180;28;20048;-77
2023/05/28 07:41:22;;;;;;;7.72;3.95;;;;;;;17.55;59.13;101967.66;5031817;28;20030;-77
2023/05/28 07:43:48;;;;;;;9.30;4.03;;;;;;;17.59;59.12;101975.34;5031841;28;20489;-78
2023/05/28 07:46:14;;;;;;;9.00;4.65;;;;;;;17.65;59.52;101973.41;5030980;28;20033;-77
2023/05/28 07:48:39;;;;;;;9.35;3.60;;;;;;;17.65;57.68;101978.69;5032307;28;20121;-77
2023/05/28 07:51:05;;;;;;;8.00;3.47;;;;;;;17.64;58.10;101972.53;5030922;28;20537;-78
2023/05/28 07:53:31;;;;;;;6.70;3.35;;;;;;;17.63;57.24;101972.63;5031810;28;20045;-78
2023/05/28 07:55:56;;;;;;;8.32;3.83;;;;;;;17.61;56.89;101967.41;5032068;28;20025;-78
2023/05/28 07:58:21;;;;;;;12.55;4.03;;;;;;;17.65;58.07;101979.53;5032116;28;20032;-78
2023/05/28 08:00:46;;;;;;;7.65;3.53;;;;;;;17.71;59.10;101973.16;5031836;28;20048;-78
2023/05/28 08:03:12;;;;;;;9.27;3.65;;;;;;;17.77;58.24;101969.44;5031909;28;20453;-78
2023/05/28 08:05:38;;;;;;;7.32;3.22;;;;;;;17.79;56.46;101973.75;5032080;28;20036;-77
2023/05/28 08:08:03;;;;;;;8.40;3.67;;;;;;;17.81;57.57;101976.31;5031660;28;20091;-77
2023/05/28 08:10:28;;;;;;;6.57;3.53;;;;;;;17.81;55.61;101981.56;5031278;28;20033;-77
2023/05/28 08:12:54;;;;;;;6.60;2.90;;;;;;;17.78;56.79;101974.66;5031674;28;20045;-77
2023/05/28 08:15:19;;;;;;;7.43;3.22;;;;;;;17.74;54.78;101979.19;5031913;28;20029;-77
2023/05/28 08:17:45;;;;;;;6.78;3.40;;;;;;;17.72;57.79;101970.50;5031506;28;20084;-77
2023/05/28 08:20:11;;;;;;;7.55;3.10;;;;;;;17.73;56.31;101977.47;5031719;28;20024;-77
2023/05/28 08:22:36;;;;;;;7.10;3.15;;;;;;;17.75;55.42;101978.28;5031564;28;20029;-77
2023/05/28 08:25:02;;;;;;;5.75;2.88;;;;;;;17.78;54.64;101973.78;5031798;28;20038;-77
2023/05/28 08:27:27;;;;;;;8.30;3.15;;;;;;;17.81;56.04;101974.56;5030765;28;20543;-77
2023/05/28 08:29:53;;;;;;;6.10;3.13;;;;;;;17.84;55.45;101977.06;5031515;28;20064;-77
2023/05/28 08:32:18;;;;;;;5.53;2.85;;;;;;;17.86;55.25;101979.63;5031769;28;20414;-77
2023/05/28 08:34:44;;;;;;;5.50;2.90;;;;;;;17.86;54.31;101977.00;5031279;28;20108;-77
2023/05/28 08:37:10;;;;;;;7.60;3.17;;;;;;;17.89;54.69;101974.25;5031532;28;20064;-77
2023/05/28 08:39:36;;;;;;;7.88;3.03;;;;;;;17.94;55.23;101972.28;5031414;28;20033;-77
2023/05/28 08:42:01;;;;;;;6.65;2.80;;;;;;;17.99;55.39;101970.38;5031259;28;20022;-78
2023/05/28 08:44:27;;;;;;;6.85;2.97;;;;;;;18.03;55.53;101971.97;5030100;28;20025;-77
2023/05/28 08:46:54;;;;;;;7.38;2.92;;;;;;;18.06;53.75;101968.34;5031236;28;20029;-77
2023/05/28 08:49:20;;;;;;;6.95;2.70;;;;;;;18.09;54.19;101962.13;5031613;28;20017;-77
2023/05/28 08:51:50;;;;;;;5.85;2.90;;;;;;;18.11;53.65;101974.31;5031450;28;20033;-77
2023/05/28 08:54:16;;;;;;;6.47;2.83;;;;;;;18.13;53.80;101963.69;5030703;28;20124;-77
2023/05/28 08:56:41;;;;;;;6.43;2.78;;;;;;;18.15;52.51;101961.88;5031332;28;20215;-77
2023/05/28 08:59:10;;;;;;;7.10;2.80;;;;;;;18.22;54.87;101958.09;5030021;28;20468;-77
2023/05/28 09:01:36;;;;;;;6.22;2.80;;;;;;;18.31;54.25;101957.69;5030143;28;20047;-77
2023/05/28 09:04:02;;;;;;;7.78;3.10;;;;;;;18.38;51.85;101960.94;5031457;28;20106;-77
2023/05/28 09:06:30;;;;;;;5.68;2.67;;;;;;;18.44;52.78;101951.94;5030992;28;20052;-77
2023/05/28 09:08:57;;;;;;;7.97;3.03;;;;;;;18.48;53.44;101954.38;5031198;28;20056;-78
2023/05/28 09:11:22;;;;;;;6.45;2.90;;;;;;;18.52;52.33;101949.84;5030757;28;20051;-77
2023/05/28 09:13:48;;;;;;;9.18;3.10;;;;;;;18.58;52.75;101949.59;5031178;28;20030;-77
2023/05/28 09:16:21;;;;;;;6.18;3.17;;;;;;;18.66;53.26;101947.47;5031084;28;20465;-77
2023/05/28 09:19:01;;;;;;;6.93;2.80;;;;;;;18.76;53.64;101947.09;5030321;28;20112;-77
2023/05/28 09:21:26;;;;;;;5.85;2.97;;;;;;;18.83;52.88;101940.63;5030492;28;20105;-77
2023/05/28 09:23:51;;;;;;;6.22;3.08;;;;;;;18.89;54.47;101943.00;5030666;28;20100;-77
2023/05/28 09:26:19;;;;;;;7.47;2.97;;;;;;;18.98;53.67;101946.19;5031171;28;20469;-77
2023/05/28 09:28:45;;;;;;;7.75;3.00;;;;;;;19.06;52.83;101939.66;5031037;28;20029;-78
2023/05/28 09:31:10;;;;;;;7.07;3.40;;;;;;;19.14;52.52;101936.66;5030156;28;20424;-77
2023/05/28 09:33:42;;;;;;;8.18;3.25;;;;;;;19.24;53.05;101943.25;5031087;28;20026;-78
2023/05/28 09:36:07;;;;;;;7.13;3.15;;;;;;;19.36;53.63;101938.34;5029661;28;20029;-78
2023/05/28 09:38:40;;;;;;;5.72;2.97;;;;;;;19.45;52.61;101932.66;5031523;28;20027;-79
2023/05/28 09:41:05;;;;;;;8.82;3.05;;;;;;;19.50;51.97;101943.84;5032305;28;20092;-78
2023/05/28 09:43:30;;;;;;;6.75;3.53;;;;;;;19.53;50.73;101935.78;5032931;28;20502;-78
2023/05/28 09:46:08;;;;;;;5.40;2.83;;;;;;;19.56;51.40;101943.56;5034599;28;20017;-78
2023/05/28 09:48:34;;;;;;;7.60;2.92;;;;;;;19.60;50.56;101938.16;5032751;28;20056;-78
2023/05/28 09:51:02;;;;;;;9.35;2.95;;;;;;;19.65;50.50;101930.84;5033325;28;20477;-78
2023/05/28 09:53:29;;;;;;;5.93;2.38;;;;;;;19.70;50.22;101928.88;5034030;28;20103;-78
2023/05/28 09:55:57;;;;;;;6.22;2.40;;;;;;;19.71;49.20;101927.94;5034335;28;20484;-79
2023/05/28 09:58:31;;;;;;;7.30;2.80;;;;;;;19.71;49.46;101925.31;5033896;28;20018;-78
2023/05/28 10:01:00;;;;;;;5.53;2.67;;;;;;;19.73;47.65;101923.44;5033134;28;20021;-78
2023/05/28 10:03:36;;;;;;;6.10;3.10;;;;;;;19.78;50.15;101921.47;5034024;28;20375;-78
2023/05/28 10:06:06;;;;;;;5.57;2.40;;;;;;;19.83;50.19;101926.50;5034116;28;20028;-79
2023/05/28 10:08:37;;;;;;;9.35;3.03;;;;;;;19.88;49.24;101915.75;5033617;28;20496;-79
2023/05/28 10:11:05;;;;;;;5.57;2.53;;;;;;;19.96;50.54;101922.38;5035337;28;20025;-79
2023/05/28 10:13:31;;;;;;;4.70;2.60;;;;;;;20.05;49.32;101926.38;5034062;28;20070;-78
2023/05/28 10:15:57;;;;;;;7.05;2.60;;;;;;;20.12;49.07;101925.16;5032859;28;20021;-78
2023/05/28 10:18:24;;;;;;;6.35;2.90;;;;;;;20.22;49.59;101929.97;5033514;28;20021;-78
2023/05/28 10:20:51;;;;;;;6.47;2.80;;;;;;;20.28;47.90;101921.75;5033770;28;20109;-78
2023/05/28 10:23:17;;;;;;;7.13;2.83;;;;;;;20.36;49.77;101922.19;5033845;28;20064;-79
2023/05/28 10:25:42;;;;;;;7.80;2.80;;;;;;;20.44;48.73;101920.03;5033747;28;20108;-79
2023/05/28 10:28:08;;;;;;;5.35;2.67;;;;;;;20.54;49.83;101919.56;5033541;28;20544;-79
2023/05/28 10:30:37;;;;;;;4.72;2.80;;;;;;;20.59;48.04;101922.84;5033331;28;20036;-79
2023/05/28 10:33:04;;;;;;;7.78;3.03;;;;;;;20.63;46.81;101919.13;5033566;28;20146;-79
2023/05/28 10:35:31;;;;;;;4.78;2.45;;;;;;;20.67;48.03;101925.94;5033419;28;20029;-79
2023/05/28 10:38:11;;;;;;;6.55;2.80;;;;;;;20.72;46.66;101915.97;5033248;28;20029;-78
2023/05/28 10:40:39;;;;;;;6.72;2.70;;;;;;;20.71;45.62;101924.84;5033558;28;20358;-79
2023/05/28 10:43:05;;;;;;;5.75;2.50;;;;;;;20.70;48.36;101922.28;5032679;28;20034;-78
2023/05/28 10:45:38;;;;;;;6.80;2.65;;;;;;;20.66;48.35;101924.25;5032910;28;20476;-78
2023/05/28 10:48:03;;;;;;;7.85;3.10;;;;;;;20.64;48.91;101926.13;5031616;28;20307;-79
2023/05/28 10:50:29;;;;;;;6.15;2.95;;;;;;;20.63;47.88;101929.69;5032027;28;20472;-79
2023/05/28 10:53:05;;;;;;;6.07;2.88;;;;;;;20.65;48.92;101926.94;5032269;28;20041;-79
2023/05/28 10:55:49;;;;;;;7.07;3.05;;;;;;;20.67;48.33;101931.22;5032087;28;20044;-79
2023/05/28 10:58:24;;;;;;;5.10;2.80;;;;;;;20.68;48.54;101938.22;5031932;28;20095;-80
2023/05/28 11:00:49;;;;;;;6.55;3.00;;;;;;;20.73;45.65;101936.19;5032790;28;20029;-79
2023/05/28 11:03:15;;;;;;;6.72;2.90;;;;;;;20.80;48.02;101935.94;5031938;28;20029;-79
2023/05/28 11:05:40;;;;;;;6.32;2.65;;;;;;;20.83;47.51;101925.19;5030680;28;20121;-78
2023/05/28 11:08:06;;;;;;;6.82;2.90;;;;;;;20.82;47.40;101934.06;5032166;28;20048;-80
2023/05/28 11:10:33;;;;;;;6.47;3.05;;;;;;;20.82;49.64;101934.06;5032737;28;20415;-79
2023/05/28 11:12:59;;;;;;;5.50;3.00;;;;;;;20.81;48.23;101930.53;5032083;28;20401;-78
2023/05/28 11:15:24;;;;;;;7.90;3.30;;;;;;;20.80;46.65;101931.47;5032158;28;20025;-79
2023/05/28 11:17:49;;;;;;;4.65;2.95;;;;;;;20.82;48.75;101934.06;5032328;28;20025;-80